createdAt,value
2018-07-24T00:00:26.770Z,86.47
2018-07-24T00:01:26.750Z,86.32
2018-07-24T00:02:26.740Z,85.94
2018-07-24T00:03:26.729Z,85.74
2018-07-24T00:04:26.724Z,85.26
2018-07-24T00:05:26.704Z,85.26
2018-07-24T00:06:26.702Z,85.26
2018-07-24T00:07:26.681Z,85.64
2018-07-24T00:08:26.668Z,85.94
2018-07-24T00:09:27.067Z,86.03
2018-07-24T00:11:10.686Z,86.22
2018-07-24T00:12:43.869Z,85.70
2018-07-24T00:13:10.651Z,85.99
2018-07-24T00:14:10.638Z,85.99
2018-07-24T00:15:43.836Z,85.99
2018-07-24T00:16:10.623Z,86.08
2018-07-24T00:17:10.602Z,85.41
2018-07-24T00:18:43.799Z,86.38
2018-07-24T00:19:10.630Z,86.08
2018-07-24T00:20:10.567Z,86.47
2018-07-24T00:21:10.556Z,85.89
2018-07-24T00:22:10.553Z,85.41
2018-07-24T00:23:10.535Z,85.89
2018-07-24T00:24:10.519Z,85.70
2018-07-24T00:25:10.512Z,83.96
2018-07-24T00:26:10.498Z,84.35
2018-07-24T00:27:10.484Z,83.91
2018-07-24T00:28:10.472Z,82.65
2018-07-24T00:29:10.462Z,83.19
2018-07-24T00:30:10.460Z,83.29
2018-07-24T00:31:10.439Z,83.09
2018-07-24T00:32:14.517Z,83.00
2018-07-24T00:33:10.416Z,82.61
2018-07-24T00:34:10.414Z,82.90
2018-07-24T00:35:10.405Z,83.39
2018-07-24T00:36:10.378Z,81.84
2018-07-24T00:37:10.377Z,82.03
2018-07-24T00:38:10.354Z,81.93
2018-07-24T00:39:10.344Z,82.13
2018-07-24T00:40:10.332Z,82.90
2018-07-24T00:41:10.325Z,81.84
2018-07-24T00:42:10.308Z,81.55
2018-07-24T00:43:10.296Z,81.74
2018-07-24T00:44:10.290Z,81.84
2018-07-24T00:45:10.283Z,81.55
2018-07-24T00:46:10.263Z,82.03
2018-07-24T00:47:10.250Z,81.07
2018-07-24T00:48:10.241Z,82.51
2018-07-24T00:49:10.228Z,82.13
2018-07-24T00:50:10.217Z,82.42
2018-07-24T00:51:10.204Z,82.03
2018-07-24T00:52:10.191Z,82.51
2018-07-24T00:53:10.184Z,82.03
2018-07-24T00:54:10.196Z,82.51
2018-07-24T00:55:10.156Z,83.09
2018-07-24T00:56:10.145Z,82.51
2018-07-24T00:57:10.134Z,82.71
2018-07-24T00:58:10.121Z,82.81
2018-07-24T00:59:10.135Z,83.00
2018-07-24T01:00:10.098Z,82.90
2018-07-24T01:01:10.086Z,82.90
2018-07-24T01:02:10.074Z,83.09
2018-07-24T01:03:10.063Z,82.81
2018-07-24T01:04:10.059Z,83.00
2018-07-24T01:05:10.040Z,82.90
2018-07-24T01:06:10.027Z,82.81
2018-07-24T01:07:10.026Z,83.39
2018-07-24T01:08:10.005Z,84.16
2018-07-24T01:09:09.994Z,84.16
2018-07-24T01:10:09.981Z,84.06
2018-07-24T01:11:09.971Z,83.96
2018-07-24T01:12:09.959Z,84.25
2018-07-24T01:13:09.946Z,84.35
2018-07-24T01:14:09.932Z,84.83
2018-07-24T01:15:09.921Z,85.02
2018-07-24T01:16:09.910Z,85.12
2018-07-24T01:17:09.900Z,85.22
2018-07-24T01:18:09.890Z,85.60
2018-07-24T01:19:09.875Z,85.60
2018-07-24T01:20:09.863Z,85.60
2018-07-24T01:21:12.474Z,86.24
2018-07-24T01:23:37.567Z,86.04
2018-07-24T01:25:33.918Z,86.62
2018-07-24T01:26:33.894Z,86.72
2018-07-24T01:27:33.891Z,87.20
2018-07-24T01:28:33.872Z,87.20
2018-07-24T01:29:33.859Z,87.10
2018-07-24T01:30:33.846Z,87.30
2018-07-24T01:31:36.458Z,87.40
2018-07-24T01:32:33.822Z,87.01
2018-07-24T01:33:33.828Z,87.49
2018-07-24T01:34:33.798Z,87.78
2018-07-24T01:36:58.736Z,88.17
2018-07-24T01:39:01.446Z,88.45
2018-07-24T01:39:42.258Z,88.55
2018-07-24T01:40:42.214Z,88.93
2018-07-24T01:42:15.414Z,89.23
2018-07-24T01:42:42.189Z,89.47
2018-07-24T01:43:42.185Z,89.09
2018-07-24T01:44:42.164Z,89.18
2018-07-24T01:45:42.154Z,88.99
2018-07-24T01:46:42.141Z,89.47
2018-07-24T01:47:42.128Z,89.37
2018-07-24T01:48:42.116Z,89.95
2018-07-24T01:49:42.105Z,89.47
2018-07-24T01:50:42.096Z,89.76
2018-07-24T01:51:42.079Z,89.86
2018-07-24T01:52:42.070Z,89.86
2018-07-24T01:53:42.055Z,90.10
2018-07-24T01:54:42.042Z,90.15
2018-07-24T01:55:42.030Z,89.91
2018-07-24T01:56:42.018Z,90.20
2018-07-24T01:57:42.014Z,90.58
2018-07-24T01:58:41.994Z,90.68
2018-07-24T01:59:41.984Z,90.88
2018-07-24T02:00:41.977Z,90.39
2018-07-24T02:01:41.959Z,90.58
2018-07-24T02:02:41.944Z,90.30
2018-07-24T02:03:41.944Z,90.48
2018-07-24T02:04:41.925Z,89.91
2018-07-24T02:05:41.911Z,90.00
2018-07-24T02:06:41.897Z,90.68
2018-07-24T02:07:41.887Z,90.58
2018-07-24T02:08:41.972Z,90.39
2018-07-24T02:09:41.870Z,90.20
2018-07-24T02:10:41.850Z,90.48
2018-07-24T02:11:41.885Z,90.48
2018-07-24T02:12:41.831Z,90.58
2018-07-24T02:13:41.811Z,90.48
2018-07-24T02:14:41.807Z,90.48
2018-07-24T02:15:41.786Z,90.30
2018-07-24T02:16:41.775Z,89.91
2018-07-24T02:17:41.761Z,89.72
2018-07-24T02:18:41.751Z,90.20
2018-07-24T02:19:41.738Z,90.10
2018-07-24T02:20:41.726Z,91.06
2018-07-24T02:21:41.715Z,90.78
2018-07-24T02:22:41.703Z,90.00
2018-07-24T02:23:41.688Z,89.72
2018-07-24T02:24:41.676Z,89.53
2018-07-24T02:25:41.665Z,89.33
2018-07-24T02:26:41.652Z,89.43
2018-07-24T02:27:41.639Z,89.53
2018-07-24T02:28:41.628Z,89.43
2018-07-24T02:29:41.616Z,90.68
2018-07-24T02:30:41.606Z,90.48
2018-07-24T02:31:41.656Z,90.68
2018-07-24T02:32:41.581Z,90.97
2018-07-24T02:33:41.568Z,90.48
2018-07-24T02:34:41.555Z,91.16
2018-07-24T02:35:41.542Z,90.78
2018-07-24T02:36:41.539Z,91.06
2018-07-24T02:37:41.517Z,91.16
2018-07-24T02:38:41.506Z,90.88
2018-07-24T02:39:41.510Z,90.30
2018-07-24T02:40:41.480Z,90.58
2018-07-24T02:41:41.477Z,90.68
2018-07-24T02:42:41.459Z,90.48
2018-07-24T02:43:41.444Z,90.88
2018-07-24T02:44:41.430Z,90.58
2018-07-24T02:45:41.419Z,91.06
2018-07-24T02:46:41.408Z,91.16
2018-07-24T02:47:41.397Z,90.78
2018-07-24T02:48:41.383Z,90.88
2018-07-24T02:49:41.370Z,90.92
2018-07-24T02:50:41.359Z,90.34
2018-07-24T02:51:41.353Z,90.92
2018-07-24T02:52:41.333Z,90.97
2018-07-24T02:53:41.339Z,90.97
2018-07-24T02:54:41.309Z,91.12
2018-07-24T02:55:41.296Z,90.64
2018-07-24T02:56:41.283Z,91.31
2018-07-24T02:57:41.273Z,91.21
2018-07-24T02:58:41.258Z,91.41
2018-07-24T02:59:41.245Z,91.41
2018-07-24T03:00:41.233Z,90.73
2018-07-24T03:01:41.230Z,90.25
2018-07-24T03:02:41.209Z,90.64
2018-07-24T03:03:41.199Z,90.54
2018-07-24T03:04:41.189Z,90.44
2018-07-24T03:05:41.171Z,90.64
2018-07-24T03:06:41.160Z,90.54
2018-07-24T03:07:41.147Z,90.73
2018-07-24T03:08:41.136Z,90.64
2018-07-24T03:09:41.126Z,90.73
2018-07-24T03:10:41.111Z,89.96
2018-07-24T03:11:41.097Z,90.06
2018-07-24T03:12:41.084Z,89.77
2018-07-24T03:13:41.072Z,90.06
2018-07-24T03:14:41.058Z,89.96
2018-07-24T03:15:41.102Z,89.77
2018-07-24T03:16:41.038Z,90.16
2018-07-24T03:17:41.022Z,90.06
2018-07-24T03:18:41.010Z,90.06
2018-07-24T03:19:40.996Z,89.58
2018-07-24T03:20:40.990Z,89.58
2018-07-24T03:21:40.979Z,89.39
2018-07-24T03:22:41.013Z,89.77
2018-07-24T03:23:40.948Z,89.39
2018-07-24T03:24:40.944Z,89.00
2018-07-24T03:25:40.922Z,89.43
2018-07-24T03:26:40.910Z,89.86
2018-07-24T03:27:40.896Z,89.19
2018-07-24T03:28:40.891Z,88.47
2018-07-24T03:29:40.881Z,89.29
2018-07-24T03:30:40.860Z,88.47
2018-07-24T03:31:40.851Z,89.05
2018-07-24T03:32:40.841Z,89.63
2018-07-24T03:33:40.822Z,89.53
2018-07-24T03:34:40.809Z,89.53
2018-07-24T03:35:40.796Z,89.43
2018-07-24T03:36:40.790Z,89.34
2018-07-24T03:37:40.775Z,88.38
2018-07-24T03:38:40.766Z,88.28
2018-07-24T03:39:40.764Z,88.18
2018-07-24T03:40:40.733Z,88.09
2018-07-24T03:41:40.721Z,88.09
2018-07-24T03:42:40.707Z,87.41
2018-07-24T03:43:40.694Z,87.70
2018-07-24T03:44:40.683Z,87.41
2018-07-24T03:45:40.669Z,87.41
2018-07-24T03:46:40.657Z,87.60
2018-07-24T03:47:40.742Z,88.09
2018-07-24T03:48:40.630Z,87.70
2018-07-24T03:49:40.617Z,87.03
2018-07-24T03:50:40.615Z,88.09
2018-07-24T03:51:40.592Z,87.60
2018-07-24T03:52:40.577Z,87.90
2018-07-24T03:53:40.566Z,88.09
2018-07-24T03:54:40.555Z,87.80
2018-07-24T03:55:40.539Z,87.80
2018-07-24T03:56:40.542Z,87.51
2018-07-24T03:57:40.517Z,87.90
2018-07-24T03:58:40.503Z,88.38
2018-07-24T03:59:40.496Z,87.99
2018-07-24T04:00:40.477Z,87.90
2018-07-24T04:01:40.464Z,87.70
2018-07-24T04:02:40.450Z,87.99
2018-07-24T04:03:40.439Z,88.09
2018-07-24T04:04:40.423Z,88.18
2018-07-24T04:05:40.411Z,88.09
2018-07-24T04:06:40.399Z,87.90
2018-07-24T04:07:40.386Z,87.60
2018-07-24T04:08:40.374Z,87.99
2018-07-24T04:09:40.360Z,88.18
2018-07-24T04:10:40.351Z,88.38
2018-07-24T04:11:40.379Z,88.57
2018-07-24T04:12:40.323Z,88.28
2018-07-24T04:13:40.308Z,88.43
2018-07-24T04:14:40.296Z,88.38
2018-07-24T04:15:40.283Z,88.67
2018-07-24T04:16:40.269Z,88.67
2018-07-24T04:17:40.257Z,88.18
2018-07-24T04:18:40.260Z,88.18
2018-07-24T04:19:40.238Z,87.60
2018-07-24T04:20:40.218Z,87.60
2018-07-24T04:21:40.211Z,87.90
2018-07-24T04:22:40.193Z,87.70
2018-07-24T04:23:40.181Z,87.22
2018-07-24T04:24:40.172Z,87.03
2018-07-24T04:25:40.164Z,87.26
2018-07-24T04:26:40.141Z,87.22
2018-07-24T04:27:40.293Z,87.03
2018-07-24T04:28:40.118Z,86.98
2018-07-24T04:29:40.103Z,87.17
2018-07-24T04:30:40.196Z,86.93
2018-07-24T04:31:40.077Z,87.32
2018-07-24T04:32:40.065Z,87.17
2018-07-24T04:33:40.054Z,86.98
2018-07-24T04:34:40.039Z,86.98
2018-07-24T04:35:40.026Z,86.98
2018-07-24T04:36:40.014Z,86.98
2018-07-24T04:37:40.000Z,87.17
2018-07-24T04:38:39.988Z,86.69
2018-07-24T04:39:39.977Z,87.07
2018-07-24T04:40:39.963Z,86.78
2018-07-24T04:41:39.952Z,86.59
2018-07-24T04:42:39.937Z,86.49
2018-07-24T04:43:39.925Z,86.73
2018-07-24T04:44:39.912Z,86.01
2018-07-24T04:45:39.907Z,86.11
2018-07-24T04:46:39.888Z,86.11
2018-07-24T04:47:39.873Z,85.91
2018-07-24T04:48:39.863Z,85.91
2018-07-24T04:49:39.853Z,86.30
2018-07-24T04:50:39.837Z,86.21
2018-07-24T04:51:39.822Z,86.40
2018-07-24T04:52:39.812Z,86.01
2018-07-24T04:53:39.798Z,86.21
2018-07-24T04:54:39.796Z,86.40
2018-07-24T04:55:39.778Z,85.82
2018-07-24T04:56:39.763Z,86.40
2018-07-24T04:57:39.751Z,85.91
2018-07-24T04:58:39.736Z,86.21
2018-07-24T04:59:39.723Z,86.11
2018-07-24T05:00:39.710Z,86.11
2018-07-24T05:01:39.701Z,86.15
2018-07-24T05:02:39.772Z,85.77
2018-07-24T05:03:39.673Z,85.38
2018-07-24T05:04:39.660Z,85.77
2018-07-24T05:05:39.648Z,85.53
2018-07-24T05:06:39.638Z,85.67
2018-07-24T05:07:39.621Z,85.47
2018-07-24T05:08:39.609Z,85.28
2018-07-24T05:09:39.654Z,85.57
2018-07-24T05:10:39.586Z,85.09
2018-07-24T05:11:39.576Z,85.28
2018-07-24T05:12:39.560Z,84.80
2018-07-24T05:13:39.550Z,84.80
2018-07-24T05:14:39.534Z,84.61
2018-07-24T05:15:39.524Z,84.52
2018-07-24T05:16:39.547Z,84.42
2018-07-24T05:17:39.507Z,84.32
2018-07-24T05:18:39.484Z,84.22
2018-07-24T05:19:39.480Z,84.03
2018-07-24T05:20:39.476Z,83.78
2018-07-24T05:21:39.493Z,83.74
2018-07-24T05:22:39.433Z,84.07
2018-07-24T05:23:39.449Z,83.69
2018-07-24T05:24:39.462Z,83.78
2018-07-24T05:25:39.394Z,83.50
2018-07-24T05:26:39.388Z,83.88
2018-07-24T05:27:39.373Z,83.59
2018-07-24T05:28:39.358Z,83.53
2018-07-24T05:29:39.397Z,83.30
2018-07-24T05:30:39.346Z,82.96
2018-07-24T05:31:39.319Z,82.96
2018-07-24T05:32:39.310Z,82.48
2018-07-24T05:33:39.297Z,82.57
2018-07-24T05:34:39.291Z,81.99
2018-07-24T05:35:39.270Z,81.65
2018-07-24T05:36:39.259Z,81.84
2018-07-24T05:37:39.246Z,81.55
2018-07-24T05:38:39.290Z,80.87
2018-07-24T05:39:39.224Z,79.37
2018-07-24T05:40:39.208Z,76.04
2018-07-24T05:41:39.199Z,71.76
2018-07-24T05:42:39.185Z,68.96
2018-07-24T05:43:39.172Z,66.27
2018-07-24T05:44:39.163Z,64.01
2018-07-24T05:45:39.152Z,62.58
2018-07-24T05:46:39.141Z,61.80
2018-07-24T05:47:39.126Z,61.90
2018-07-24T05:48:39.141Z,60.60
2018-07-24T05:49:39.113Z,59.66
2018-07-24T05:50:39.095Z,58.71
2018-07-24T05:51:39.084Z,57.18
2018-07-24T05:52:39.076Z,56.33
2018-07-24T05:53:39.077Z,55.26
2018-07-24T05:54:39.057Z,55.16
2018-07-24T05:55:39.051Z,55.36
2018-07-24T05:56:39.040Z,54.70
2018-07-24T05:57:39.030Z,54.44
2018-07-24T05:58:39.022Z,53.07
2018-07-24T05:59:39.015Z,54.09
2018-07-24T06:00:39.009Z,53.66
2018-07-24T06:01:38.999Z,53.27
2018-07-24T06:02:38.993Z,51.82
2018-07-24T06:03:38.983Z,51.66
2018-07-24T06:04:38.978Z,51.76
2018-07-24T06:05:38.982Z,51.17
2018-07-24T06:06:38.974Z,51.66
2018-07-24T06:08:22.642Z,51.76
2018-07-24T06:10:51.749Z,52.48
2018-07-24T06:11:51.745Z,51.82
2018-07-24T06:12:51.740Z,51.73
2018-07-24T06:13:56.075Z,52.29
2018-07-24T06:14:51.829Z,51.63
2018-07-24T06:15:51.727Z,51.39
2018-07-24T06:16:51.891Z,49.77
2018-07-24T06:17:51.718Z,49.09
2018-07-24T06:20:00.892Z,49.26
2018-07-24T06:21:03.520Z,48.60
2018-07-24T06:22:00.887Z,48.09
2018-07-24T06:23:00.882Z,48.21
2018-07-24T06:24:00.888Z,47.82
2018-07-24T06:25:00.876Z,48.19
2018-07-24T06:26:00.874Z,49.36
2018-07-24T06:27:00.885Z,49.82
2018-07-24T06:28:00.870Z,49.36
2018-07-24T06:29:00.866Z,48.38
2018-07-24T06:30:00.871Z,47.45
2018-07-24T06:31:00.872Z,47.26
2018-07-24T06:32:00.862Z,46.52
2018-07-24T06:33:00.868Z,46.42
2018-07-24T06:34:00.857Z,45.76
2018-07-24T06:35:00.873Z,46.34
2018-07-24T06:36:00.859Z,45.73
2018-07-24T06:37:00.855Z,47.63
2018-07-24T06:38:00.854Z,48.38
2018-07-24T06:39:00.853Z,49.90
2018-07-24T06:40:00.854Z,51.10
2018-07-24T06:41:00.853Z,51.82
2018-07-24T06:42:00.851Z,52.41
2018-07-24T06:43:00.860Z,52.41
2018-07-24T06:44:00.851Z,52.31
2018-07-24T06:45:00.856Z,51.86
2018-07-24T06:46:00.851Z,51.07
2018-07-24T06:47:00.858Z,50.88
2018-07-24T06:48:00.856Z,52.09
2018-07-24T06:49:00.853Z,53.14
2018-07-24T06:50:00.854Z,54.48
2018-07-24T06:51:00.916Z,54.38
2018-07-24T06:52:00.966Z,55.04
2018-07-24T06:53:00.868Z,56.18
2018-07-24T06:54:00.858Z,55.72
2018-07-24T06:55:00.864Z,56.50
2018-07-24T06:56:00.870Z,55.85
2018-07-24T06:57:00.863Z,54.41
2018-07-24T06:58:00.867Z,53.34
2018-07-24T06:59:00.867Z,54.11
2018-07-24T07:00:00.875Z,54.31
2018-07-24T07:01:00.869Z,53.46
2018-07-24T07:02:00.926Z,52.90
2018-07-24T07:03:00.881Z,52.41
2018-07-24T07:04:00.895Z,53.27
2018-07-24T07:05:00.886Z,54.68
2018-07-24T07:06:00.886Z,54.21
2018-07-24T07:07:00.880Z,54.28
2018-07-24T07:08:00.886Z,55.09
2018-07-24T07:09:00.895Z,54.63
2018-07-24T07:10:00.888Z,53.09
2018-07-24T07:11:00.893Z,51.07
2018-07-24T07:12:00.894Z,50.81
2018-07-24T07:13:00.909Z,50.85
2018-07-24T07:14:00.896Z,51.14
2018-07-24T07:15:00.901Z,51.80
2018-07-24T07:16:00.908Z,52.29
2018-07-24T07:17:00.901Z,53.14
2018-07-24T07:18:00.905Z,53.34
2018-07-24T07:19:00.907Z,52.48
2018-07-24T07:20:00.913Z,52.31
2018-07-24T07:21:00.907Z,51.92
2018-07-24T07:22:00.908Z,52.15
2018-07-24T07:23:00.908Z,51.86
2018-07-24T07:24:00.910Z,51.37
2018-07-24T07:25:00.908Z,51.80
2018-07-24T07:26:00.908Z,51.82
2018-07-24T07:27:00.911Z,52.00
2018-07-24T07:28:00.918Z,51.80
2018-07-24T07:29:00.949Z,51.53
2018-07-24T07:30:00.910Z,51.51
2018-07-24T07:31:00.914Z,51.68
2018-07-24T07:32:00.910Z,52.26
2018-07-24T07:33:00.912Z,52.39
2018-07-24T07:34:00.910Z,53.05
2018-07-24T07:35:00.908Z,51.97
2018-07-24T07:36:00.907Z,51.70
2018-07-24T07:37:00.907Z,50.82
2018-07-24T07:38:00.906Z,51.02
2018-07-24T07:39:00.906Z,50.34
2018-07-24T07:40:00.907Z,51.02
2018-07-24T07:41:00.909Z,51.70
2018-07-24T07:42:00.902Z,50.92
2018-07-24T07:43:00.900Z,49.95
2018-07-24T07:44:00.950Z,50.34
2018-07-24T07:45:00.897Z,50.73
2018-07-24T07:46:00.895Z,50.97
2018-07-24T07:47:00.893Z,50.97
2018-07-24T07:48:00.900Z,51.46
2018-07-24T07:49:00.890Z,52.24
2018-07-24T07:50:00.887Z,53.21
2018-07-24T07:51:00.888Z,53.50
2018-07-24T07:52:00.883Z,53.31
2018-07-24T07:53:00.879Z,52.34
2018-07-24T07:54:00.881Z,51.48
2018-07-24T07:55:00.874Z,50.53
2018-07-24T07:56:00.870Z,49.83
2018-07-24T07:57:00.866Z,50.31
2018-07-24T07:58:00.863Z,50.58
2018-07-24T07:59:00.862Z,50.19
2018-07-24T08:00:00.857Z,50.38
2018-07-24T08:01:00.850Z,50.75
2018-07-24T08:02:00.849Z,51.04
2018-07-24T08:03:00.874Z,50.78
2018-07-24T08:04:00.852Z,50.41
2018-07-24T08:05:00.838Z,50.90
2018-07-24T08:06:00.837Z,51.56
2018-07-24T08:07:00.828Z,51.75
2018-07-24T08:08:00.834Z,51.92
2018-07-24T08:09:00.828Z,51.65
2018-07-24T08:10:00.829Z,50.97
2018-07-24T08:11:00.821Z,50.78
2018-07-24T08:12:00.809Z,51.63
2018-07-24T08:13:00.803Z,52.31
2018-07-24T08:14:00.803Z,52.31
2018-07-24T08:15:00.808Z,52.31
2018-07-24T08:16:00.807Z,51.73
2018-07-24T08:17:00.788Z,50.68
2018-07-24T08:18:00.784Z,50.65
2018-07-24T08:19:00.779Z,51.53
2018-07-24T08:20:00.778Z,51.43
2018-07-24T08:21:00.789Z,50.75
2018-07-24T08:22:00.773Z,50.85
2018-07-24T08:23:00.772Z,50.68
2018-07-24T08:24:00.757Z,50.58
2018-07-24T08:25:00.753Z,49.68
2018-07-24T08:26:00.751Z,50.46
2018-07-24T08:27:00.741Z,50.65
2018-07-24T08:28:00.762Z,49.78
2018-07-24T08:29:00.741Z,50.38
2018-07-24T08:30:00.725Z,50.68
2018-07-24T08:31:00.720Z,50.12
2018-07-24T08:32:00.715Z,50.02
2018-07-24T08:33:00.707Z,49.54
2018-07-24T08:34:00.706Z,48.93
2018-07-24T08:35:00.710Z,47.97
2018-07-24T08:36:00.702Z,47.49
2018-07-24T08:37:00.697Z,48.00
2018-07-24T08:38:00.681Z,48.19
2018-07-24T08:39:00.677Z,47.80
2018-07-24T08:40:00.673Z,47.51
2018-07-24T08:41:00.670Z,47.90
2018-07-24T08:42:00.659Z,46.63
2018-07-24T08:43:00.654Z,46.17
2018-07-24T08:44:00.649Z,46.83
2018-07-24T08:45:00.652Z,47.71
2018-07-24T08:46:00.637Z,48.17
2018-07-24T08:47:00.633Z,48.75
2018-07-24T08:48:00.682Z,48.00
2018-07-24T08:49:00.654Z,47.90
2018-07-24T08:50:00.614Z,46.26
2018-07-24T08:51:00.610Z,46.07
2018-07-24T08:52:00.605Z,46.56
2018-07-24T08:53:00.706Z,45.87
2018-07-24T08:54:00.828Z,46.17
2018-07-24T08:55:00.944Z,46.44
2018-07-24T08:56:00.588Z,47.49
2018-07-24T08:57:00.575Z,47.78
2018-07-24T08:58:00.570Z,47.90
2018-07-24T08:59:00.568Z,46.14
2018-07-24T09:00:00.560Z,46.17
2018-07-24T09:01:00.562Z,45.97
2018-07-24T09:02:00.548Z,45.87
2018-07-24T09:03:00.594Z,43.75
2018-07-24T09:04:00.538Z,44.34
2018-07-24T09:05:00.541Z,45.21
2018-07-24T09:06:00.528Z,43.10
2018-07-24T09:07:00.523Z,42.71
2018-07-24T09:08:00.520Z,42.52
2018-07-24T09:09:00.515Z,42.22
2018-07-24T09:10:00.508Z,42.52
2018-07-24T09:11:00.500Z,42.91
2018-07-24T09:12:00.496Z,42.91
2018-07-24T09:13:00.504Z,41.66
2018-07-24T09:14:00.489Z,41.36
2018-07-24T09:15:00.478Z,42.05
2018-07-24T09:16:00.472Z,42.05
2018-07-24T09:17:00.467Z,39.80
2018-07-24T09:18:00.461Z,40.08
2018-07-24T09:19:00.456Z,40.27
2018-07-24T09:20:00.457Z,39.20
2018-07-24T09:21:00.545Z,39.90
2018-07-24T09:22:00.438Z,39.70
2018-07-24T09:23:00.449Z,40.21
2018-07-24T09:24:00.427Z,39.45
2018-07-24T09:25:00.421Z,38.98
2018-07-24T09:26:00.416Z,38.70
2018-07-24T09:27:00.488Z,38.41
2018-07-24T09:28:00.404Z,38.82
2018-07-24T09:29:00.397Z,39.27
2018-07-24T09:30:00.391Z,39.96
2018-07-24T09:31:00.385Z,40.16
2018-07-24T09:32:00.405Z,40.55
2018-07-24T09:33:00.375Z,40.84
2018-07-24T09:34:00.370Z,40.84
2018-07-24T09:35:00.366Z,40.84
2018-07-24T09:36:00.367Z,40.74
2018-07-24T09:37:00.358Z,40.64
2018-07-24T09:38:00.369Z,40.16
2018-07-24T09:39:00.349Z,39.96
2018-07-24T09:40:00.345Z,39.47
2018-07-24T09:41:00.350Z,39.47
2018-07-24T09:42:00.337Z,39.29
2018-07-24T09:43:00.336Z,38.31
2018-07-24T09:44:00.334Z,38.15
2018-07-24T09:45:00.426Z,37.54
2018-07-24T09:46:00.452Z,37.66
2018-07-24T09:47:00.328Z,37.48
2018-07-24T09:48:00.320Z,36.99
2018-07-24T09:49:00.312Z,36.62
2018-07-24T09:50:00.308Z,35.26
2018-07-24T09:51:00.307Z,34.70
2018-07-24T09:52:00.305Z,34.30
2018-07-24T09:53:00.306Z,34.49
2018-07-24T09:54:00.299Z,34.99
2018-07-24T09:55:00.299Z,33.94
2018-07-24T09:56:00.289Z,32.87
2018-07-24T09:57:00.295Z,32.80
2018-07-24T09:58:00.285Z,32.03
2018-07-24T09:59:00.284Z,31.75
2018-07-24T10:00:00.279Z,31.26
2018-07-24T10:01:00.276Z,31.26
2018-07-24T10:02:00.275Z,30.66
2018-07-24T10:03:00.273Z,30.30
2018-07-24T10:04:00.271Z,29.72
2018-07-24T10:05:00.268Z,29.62
2018-07-24T10:06:00.265Z,29.52
2018-07-24T10:07:00.265Z,28.75
2018-07-24T10:08:00.261Z,28.76
2018-07-24T10:09:00.259Z,28.78
2018-07-24T10:10:00.265Z,28.48
2018-07-24T10:11:00.352Z,28.96
2018-07-24T10:12:00.269Z,29.05
2018-07-24T10:13:00.421Z,29.05
2018-07-24T10:14:00.254Z,27.86
2018-07-24T10:15:00.271Z,28.82
2018-07-24T10:16:00.260Z,31.13
2018-07-24T10:17:00.302Z,32.00
2018-07-24T10:18:00.258Z,31.82
2018-07-24T10:19:00.299Z,32.29
2018-07-24T10:20:00.258Z,31.62
2018-07-24T10:21:00.258Z,30.65
2018-07-24T10:22:00.270Z,30.48
2018-07-24T10:23:00.271Z,29.61
2018-07-24T10:24:00.267Z,29.64
2018-07-24T10:25:00.282Z,28.94
2018-07-24T10:26:00.271Z,28.88
2018-07-24T10:27:00.278Z,27.70
2018-07-24T10:28:00.288Z,27.49
2018-07-24T10:29:00.288Z,27.77
2018-07-24T10:30:00.291Z,27.75
2018-07-24T10:31:00.295Z,29.00
2018-07-24T10:32:00.300Z,30.06
2018-07-24T10:33:00.306Z,30.27
2018-07-24T10:34:00.313Z,29.58
2018-07-24T10:35:00.320Z,29.78
2018-07-24T10:36:00.334Z,29.68
2018-07-24T10:37:00.330Z,29.39
2018-07-24T10:38:00.351Z,28.45
2018-07-24T10:39:00.355Z,28.37
2018-07-24T10:40:00.353Z,27.66
2018-07-24T10:41:00.358Z,28.03
2018-07-24T10:42:00.410Z,28.62
2018-07-24T10:43:00.417Z,29.28
2018-07-24T10:44:00.392Z,29.51
2018-07-24T10:45:00.392Z,28.74
2018-07-24T10:46:00.399Z,28.35
2018-07-24T10:47:00.404Z,27.87
2018-07-24T10:48:00.413Z,27.21
2018-07-24T10:49:00.420Z,26.71
2018-07-24T10:50:00.430Z,26.92
2018-07-24T10:51:00.439Z,27.60
2018-07-24T10:52:00.447Z,27.69
2018-07-24T10:53:00.472Z,27.87
2018-07-24T10:54:00.483Z,28.76
2018-07-24T10:55:00.478Z,28.27
2018-07-24T10:56:00.483Z,28.07
2018-07-24T10:57:00.500Z,27.86
2018-07-24T10:58:00.504Z,28.06
2018-07-24T10:59:00.510Z,27.97
2018-07-24T11:00:00.521Z,27.79
2018-07-24T11:01:00.529Z,27.79
2018-07-24T11:02:00.550Z,27.31
2018-07-24T11:03:00.547Z,26.61
2018-07-24T11:04:00.558Z,26.33
2018-07-24T11:05:00.565Z,27.40
2018-07-24T11:06:00.583Z,26.71
2018-07-24T11:07:00.585Z,26.51
2018-07-24T11:08:00.595Z,26.61
2018-07-24T11:09:00.606Z,27.18
2018-07-24T11:10:00.611Z,26.68
2018-07-24T11:11:00.638Z,27.65
2018-07-24T11:12:00.635Z,27.84
2018-07-24T11:13:00.643Z,27.76
2018-07-24T11:14:00.651Z,27.66
2018-07-24T11:15:00.661Z,27.73
2018-07-24T11:16:00.678Z,28.23
2018-07-24T11:17:00.680Z,28.34
2018-07-24T11:18:00.692Z,27.66
2018-07-24T11:19:00.709Z,26.68
2018-07-24T11:20:00.711Z,26.89
2018-07-24T11:21:00.722Z,27.26
2018-07-24T11:22:00.857Z,27.07
2018-07-24T11:23:00.838Z,27.75
2018-07-24T11:24:00.779Z,27.44
2018-07-24T11:25:00.764Z,27.73
2018-07-24T11:26:00.767Z,27.84
2018-07-24T11:27:00.775Z,27.45
2018-07-24T11:28:00.786Z,27.76
2018-07-24T11:29:00.794Z,27.47
2018-07-24T11:30:00.813Z,27.72
2018-07-24T11:31:00.813Z,28.69
2018-07-24T11:32:00.822Z,29.37
2018-07-24T11:33:00.901Z,28.88
2018-07-24T11:34:00.848Z,28.97
2018-07-24T11:35:00.855Z,28.89
2018-07-24T11:36:00.965Z,28.69
2018-07-24T11:37:00.868Z,28.91
2018-07-24T11:38:00.877Z,28.03
2018-07-24T11:39:00.886Z,27.73
2018-07-24T11:40:00.905Z,27.82
2018-07-24T11:41:00.915Z,27.83
2018-07-24T11:42:00.914Z,28.13
2018-07-24T11:43:00.925Z,28.03
2018-07-24T11:44:00.962Z,28.58
2018-07-24T11:45:00.940Z,28.77
2018-07-24T11:46:00.947Z,29.94
2018-07-24T11:47:00.967Z,29.47
2018-07-24T11:48:00.964Z,29.66
2018-07-24T11:49:00.982Z,30.11
2018-07-24T11:50:00.980Z,30.91
2018-07-24T11:51:00.988Z,30.82
2018-07-24T11:52:01.304Z,29.65
2018-07-24T11:53:01.007Z,30.34
2018-07-24T11:54:01.013Z,30.04
2018-07-24T11:55:01.027Z,31.28
2018-07-24T11:56:01.022Z,32.21
2018-07-24T11:57:01.029Z,32.90
2018-07-24T11:58:01.036Z,33.20
2018-07-24T11:59:01.051Z,31.94
2018-07-24T12:00:01.042Z,31.76
2018-07-24T12:01:01.045Z,31.95
2018-07-24T12:02:01.049Z,31.94
2018-07-24T12:03:01.052Z,32.41
2018-07-24T12:04:01.061Z,32.69
2018-07-24T12:05:01.056Z,33.17
2018-07-24T12:06:01.062Z,33.92
2018-07-24T12:07:01.081Z,34.41
2018-07-24T12:08:01.065Z,35.00
2018-07-24T12:09:01.068Z,34.90
2018-07-24T12:10:01.072Z,35.29
2018-07-24T12:11:01.068Z,35.17
2018-07-24T12:12:01.083Z,35.27
2018-07-24T12:13:01.068Z,34.90
2018-07-24T12:14:01.071Z,35.19
2018-07-24T12:15:01.175Z,34.41
2018-07-24T12:16:01.096Z,34.70
2018-07-24T12:17:01.069Z,34.21
2018-07-24T12:18:01.081Z,35.25
2018-07-24T12:19:01.068Z,35.66
2018-07-24T12:20:01.066Z,35.17
2018-07-24T12:21:01.066Z,35.00
2018-07-24T12:22:01.063Z,34.80
2018-07-24T12:23:01.063Z,34.62
2018-07-24T12:24:01.060Z,34.33
2018-07-24T12:25:01.058Z,34.81
2018-07-24T12:26:01.056Z,34.42
2018-07-24T12:27:01.117Z,34.23
2018-07-24T12:28:01.056Z,34.13
2018-07-24T12:29:01.060Z,34.25
2018-07-24T12:30:01.057Z,34.15
2018-07-24T12:31:01.052Z,34.03
2018-07-24T12:32:01.046Z,33.94
2018-07-24T12:33:01.056Z,34.52
2018-07-24T12:34:01.047Z,34.33
2018-07-24T12:35:01.038Z,35.29
2018-07-24T12:36:01.169Z,35.10
2018-07-24T12:37:01.034Z,35.08
2018-07-24T12:38:01.031Z,35.66
2018-07-24T12:39:01.028Z,35.27
2018-07-24T12:40:01.036Z,35.66
2018-07-24T12:41:01.024Z,35.17
2018-07-24T12:42:01.019Z,34.96
2018-07-24T12:43:01.031Z,35.37
2018-07-24T12:44:01.020Z,35.37
2018-07-24T12:45:01.011Z,35.17
2018-07-24T12:46:01.014Z,35.27
2018-07-24T12:47:01.007Z,35.00
2018-07-24T12:48:01.005Z,35.19
2018-07-24T12:49:01.000Z,34.90
2018-07-24T12:50:00.991Z,34.80
2018-07-24T12:51:00.991Z,35.00
2018-07-24T12:52:00.993Z,35.41
2018-07-24T12:53:00.980Z,35.02
2018-07-24T12:54:00.984Z,34.03
2018-07-24T12:55:00.976Z,34.23
2018-07-24T12:56:00.970Z,35.02
2018-07-24T12:57:00.982Z,34.41
2018-07-24T12:58:01.040Z,34.88
2018-07-24T12:59:00.967Z,35.27
2018-07-24T13:00:00.955Z,35.85
2018-07-24T13:01:00.952Z,35.96